createdAt,value
2023-03-15T05:00:34.211Z,0.20
2023-03-15T05:01:35.183Z,0.12
2023-03-15T05:02:35.084Z,0.18
2023-03-15T05:03:35.088Z,0.18
2023-03-15T05:04:35.064Z,0.18
2023-03-15T05:05:35.089Z,0.21
2023-03-15T05:06:35.066Z,0.18
2023-03-15T05:07:35.046Z,0.18
2023-03-15T05:08:35.023Z,0.16
2023-03-15T05:09:35.016Z,0.20
2023-03-15T05:10:35.007Z,0.15
2023-03-15T05:11:35.004Z,0.13
2023-03-15T05:12:35.003Z,0.15
2023-03-15T05:13:34.976Z,0.20
2023-03-15T05:14:34.966Z,0.20
2023-03-15T05:15:34.991Z,0.18
2023-03-15T05:16:34.957Z,0.23
2023-03-15T05:17:34.938Z,0.18
2023-03-15T05:18:34.946Z,0.15
2023-03-15T05:19:34.920Z,0.16
2023-03-15T05:20:34.923Z,0.24
2023-03-15T05:21:34.892Z,0.21
2023-03-15T05:22:34.909Z,0.20
2023-03-15T05:23:34.872Z,0.18
2023-03-15T05:24:34.871Z,0.21
2023-03-15T05:25:37.462Z,0.18
2023-03-15T05:26:34.858Z,0.21
2023-03-15T05:27:34.843Z,0.23
2023-03-15T05:28:34.847Z,0.24
2023-03-15T05:29:34.810Z,0.20
2023-03-15T05:30:34.799Z,0.24
2023-03-15T05:31:34.872Z,0.21
2023-03-15T05:32:34.957Z,0.18
2023-03-15T05:33:34.772Z,0.21
2023-03-15T05:34:34.770Z,0.21
2023-03-15T05:35:34.752Z,0.28
2023-03-15T05:36:34.757Z,0.21
2023-03-15T05:37:34.720Z,0.24
2023-03-15T05:38:34.722Z,0.27
2023-03-15T05:39:34.819Z,0.31
2023-03-15T05:40:34.695Z,0.38
2023-03-15T05:41:34.711Z,0.42
2023-03-15T05:42:34.672Z,0.45
2023-03-15T05:43:34.662Z,0.39
2023-03-15T05:44:34.659Z,0.39
2023-03-15T05:45:34.709Z,0.41
2023-03-15T05:46:34.656Z,0.42
2023-03-15T05:47:34.614Z,0.51
2023-03-15T05:48:34.624Z,0.53
2023-03-15T05:49:34.607Z,0.57
2023-03-15T05:50:34.592Z,0.49
2023-03-15T05:51:34.609Z,0.51
2023-03-15T05:52:34.592Z,0.57
2023-03-15T05:53:34.658Z,0.52
2023-03-15T05:54:34.570Z,0.51
2023-03-15T05:55:34.540Z,0.57
2023-03-15T05:56:34.538Z,0.61
2023-03-15T05:57:34.528Z,0.70
2023-03-15T05:58:34.510Z,0.68
2023-03-15T05:59:34.514Z,0.71
2023-03-15T06:00:34.508Z,0.62
2023-03-15T06:01:34.465Z,0.64
2023-03-15T06:02:34.475Z,0.67
2023-03-15T06:03:34.513Z,0.72
2023-03-15T06:04:34.637Z,0.76
2023-03-15T06:05:34.437Z,0.80
2023-03-15T06:06:34.451Z,0.86
2023-03-15T06:07:34.431Z,0.89
2023-03-15T06:08:34.409Z,0.90
2023-03-15T06:09:34.399Z,0.90
2023-03-15T06:10:34.395Z,0.92
2023-03-15T06:11:34.367Z,0.92
2023-03-15T06:12:34.674Z,0.98
2023-03-15T06:13:34.358Z,0.98
2023-03-15T06:14:34.347Z,0.98
2023-03-15T06:15:34.338Z,1.06
2023-03-15T06:16:34.394Z,1.07
2023-03-15T06:17:34.323Z,1.10
2023-03-15T06:18:34.301Z,1.14
2023-03-15T06:19:35.780Z,1.15
2023-03-15T06:20:34.297Z,1.12
2023-03-15T06:21:34.255Z,1.15
2023-03-15T06:22:34.277Z,1.06
2023-03-15T06:23:34.236Z,1.15
2023-03-15T06:24:34.275Z,1.12
2023-03-15T06:25:34.253Z,1.15
2023-03-15T06:26:34.231Z,1.14
2023-03-15T06:27:34.239Z,1.14
2023-03-15T06:28:34.209Z,1.19
2023-03-15T06:29:34.182Z,1.14
2023-03-15T06:30:34.189Z,1.10
2023-03-15T06:31:34.174Z,1.07
2023-03-15T06:32:34.201Z,1.06
2023-03-15T06:33:34.195Z,1.10
2023-03-15T06:34:34.211Z,1.14
2023-03-15T06:35:34.174Z,1.15
2023-03-15T06:36:34.107Z,1.12
2023-03-15T06:37:35.613Z,1.19
2023-03-15T06:38:34.125Z,1.22
2023-03-15T06:39:34.165Z,1.21
2023-03-15T06:40:34.118Z,1.24
2023-03-15T06:41:34.124Z,1.26
2023-03-15T06:42:34.041Z,1.33
2023-03-15T06:43:34.072Z,1.32
2023-03-15T06:44:34.143Z,1.34
2023-03-15T06:45:34.034Z,1.32
2023-03-15T06:46:34.057Z,1.36
2023-03-15T06:47:34.003Z,1.37
2023-03-15T06:48:34.003Z,1.40
2023-03-15T06:49:34.010Z,1.43
2023-03-15T06:50:46.142Z,1.50
2023-03-15T06:51:33.989Z,1.51
2023-03-15T06:52:33.940Z,1.57
2023-03-15T06:53:33.979Z,1.61
2023-03-15T06:54:33.929Z,1.62
2023-03-15T06:55:33.925Z,1.69
2023-03-15T06:56:33.935Z,1.73
2023-03-15T06:57:33.930Z,1.85
2023-03-15T06:58:33.938Z,2.01
2023-03-15T06:59:33.877Z,2.08
2023-03-15T07:00:34.303Z,2.10
2023-03-15T07:01:33.897Z,2.16
2023-03-15T07:02:33.995Z,2.16
2023-03-15T07:03:33.843Z,2.10
2023-03-15T07:04:33.814Z,2.06
2023-03-15T07:05:33.853Z,2.06
2023-03-15T07:06:33.818Z,2.06
2023-03-15T07:07:33.811Z,2.04
2023-03-15T07:08:33.813Z,2.10
2023-03-15T07:09:33.791Z,2.06
2023-03-15T07:10:33.756Z,2.09
2023-03-15T07:11:33.782Z,2.04
2023-03-15T07:12:33.738Z,1.99
2023-03-15T07:13:33.758Z,1.94
2023-03-15T07:14:33.740Z,1.87
2023-03-15T07:15:33.727Z,1.90
2023-03-15T07:16:33.691Z,1.91
2023-03-15T07:17:33.688Z,1.87
2023-03-15T07:18:33.713Z,1.87
2023-03-15T07:19:34.600Z,1.83
2023-03-15T07:20:35.559Z,1.85
2023-03-15T07:21:33.645Z,1.80
2023-03-15T07:22:33.744Z,1.80
2023-03-15T07:23:33.646Z,1.79
2023-03-15T07:24:33.633Z,1.87
2023-03-15T07:25:44.966Z,1.93
2023-03-15T07:26:33.603Z,1.89
2023-03-15T07:27:33.601Z,1.91
2023-03-15T07:28:33.594Z,1.97
2023-03-15T07:29:33.576Z,1.98
2023-03-15T07:30:33.581Z,2.01
2023-03-15T07:31:33.563Z,1.97
2023-03-15T07:32:33.594Z,1.98
2023-03-15T07:33:33.534Z,2.02
2023-03-15T07:34:33.516Z,2.10
2023-03-15T07:35:33.523Z,2.22
2023-03-15T07:36:33.510Z,2.30
2023-03-15T07:37:33.483Z,2.38
2023-03-15T07:38:33.563Z,2.37
2023-03-15T07:39:33.503Z,2.31
2023-03-15T07:40:33.512Z,2.37
2023-03-15T07:41:33.451Z,2.44
2023-03-15T07:42:33.472Z,2.48
2023-03-15T07:43:33.411Z,2.38
2023-03-15T07:44:33.497Z,2.37
2023-03-15T07:45:34.116Z,2.46
2023-03-15T07:46:33.488Z,2.56
2023-03-15T07:47:33.464Z,2.74
2023-03-15T07:48:33.394Z,2.91
2023-03-15T07:49:33.594Z,2.98
2023-03-15T07:50:33.409Z,3.15
2023-03-15T07:51:33.405Z,3.15
2023-03-15T07:52:33.638Z,3.05
2023-03-15T07:53:33.449Z,3.00
2023-03-15T07:54:33.285Z,3.09
2023-03-15T07:55:33.340Z,3.15
2023-03-15T07:56:33.304Z,3.05
2023-03-15T07:57:33.289Z,3.12
2023-03-15T07:58:33.244Z,3.07
2023-03-15T07:59:33.339Z,3.05
2023-03-15T08:00:33.328Z,3.15
2023-03-15T08:01:33.399Z,3.13
2023-03-15T08:02:33.267Z,3.18
2023-03-15T08:03:33.637Z,3.23
2023-03-15T08:04:35.786Z,3.23
2023-03-15T08:05:33.284Z,3.15
2023-03-15T08:06:33.334Z,3.10
2023-03-15T08:07:33.787Z,3.13
2023-03-15T08:08:33.134Z,3.12
2023-03-15T08:09:33.135Z,3.10
2023-03-15T08:10:33.136Z,3.06
2023-03-15T08:11:33.134Z,3.06
2023-03-15T08:12:33.105Z,3.10
2023-03-15T08:13:33.145Z,3.21
2023-03-15T08:14:34.803Z,3.34
2023-03-15T08:15:33.080Z,3.34
2023-03-15T08:16:33.157Z,3.36
2023-03-15T08:17:33.095Z,3.36
2023-03-15T08:18:33.070Z,3.36
2023-03-15T08:19:33.025Z,3.42
2023-03-15T08:20:33.099Z,3.49
2023-03-15T08:21:33.013Z,3.54
2023-03-15T08:22:33.101Z,3.61
2023-03-15T08:23:33.033Z,3.72
2023-03-15T08:24:33.009Z,3.83
2023-03-15T08:25:33.000Z,3.72
2023-03-15T08:26:32.975Z,3.75
2023-03-15T08:27:32.974Z,3.65
2023-03-15T08:28:32.964Z,3.58
2023-03-15T08:29:33.059Z,3.52
2023-03-15T08:30:32.929Z,3.53
2023-03-15T08:31:33.064Z,3.47
2023-03-15T08:32:32.961Z,3.42
2023-03-15T08:33:32.880Z,3.34
2023-03-15T08:34:32.918Z,3.34
2023-03-15T08:35:33.039Z,3.25
2023-03-15T08:36:32.962Z,3.23
2023-03-15T08:37:32.879Z,3.24
2023-03-15T08:38:32.904Z,3.28
2023-03-15T08:39:32.937Z,3.30
2023-03-15T08:40:32.851Z,3.33
2023-03-15T08:41:32.859Z,3.28
2023-03-15T08:42:32.783Z,3.31
2023-03-15T08:43:33.084Z,3.28
2023-03-15T08:44:34.541Z,3.36
2023-03-15T08:45:37.445Z,3.46
2023-03-15T08:46:32.953Z,3.53
2023-03-15T08:47:32.741Z,3.65
2023-03-15T08:48:32.772Z,3.72
2023-03-15T08:49:32.785Z,3.78
2023-03-15T08:50:32.709Z,3.89
2023-03-15T08:51:32.732Z,3.83
2023-03-15T08:52:33.749Z,3.67
2023-03-15T08:53:32.730Z,3.58
2023-03-15T08:54:32.669Z,3.46
2023-03-15T08:55:32.673Z,3.50
2023-03-15T08:56:32.657Z,3.54
2023-03-15T08:57:32.615Z,3.57
2023-03-15T08:58:32.653Z,3.71
2023-03-15T08:59:32.853Z,3.82
2023-03-15T09:00:32.666Z,3.82
2023-03-15T09:01:32.708Z,3.82
2023-03-15T09:02:32.622Z,3.80
2023-03-15T09:03:32.611Z,3.76
2023-03-15T09:04:32.639Z,3.78
2023-03-15T09:05:32.992Z,3.83
2023-03-15T09:06:32.644Z,3.86
2023-03-15T09:07:32.549Z,3.94
2023-03-15T09:08:32.527Z,3.92
2023-03-15T09:09:32.539Z,3.97
2023-03-15T09:10:32.554Z,4.06
2023-03-15T09:11:32.504Z,4.14
2023-03-15T09:12:32.555Z,4.24
2023-03-15T09:13:32.456Z,4.39
2023-03-15T09:14:32.553Z,4.33
2023-03-15T09:15:33.067Z,4.32
2023-03-15T09:16:32.427Z,4.37
2023-03-15T09:17:32.564Z,4.50
2023-03-15T09:18:32.402Z,4.75
2023-03-15T09:19:32.758Z,5.05
2023-03-15T09:20:32.393Z,5.41
2023-03-15T09:21:32.355Z,5.10
2023-03-15T09:22:38.951Z,4.88
2023-03-15T09:23:32.372Z,5.23
2023-03-15T09:24:32.349Z,5.92
2023-03-15T09:25:32.331Z,5.86
2023-03-15T09:26:32.460Z,5.68
2023-03-15T09:27:32.381Z,5.64
2023-03-15T09:28:32.291Z,5.40
2023-03-15T09:29:32.380Z,5.01
2023-03-15T09:30:32.422Z,4.89
2023-03-15T09:31:32.400Z,4.80
2023-03-15T09:32:32.307Z,4.59
2023-03-15T09:33:32.243Z,4.52
2023-03-15T09:34:39.869Z,4.46
2023-03-15T09:35:32.305Z,4.44
2023-03-15T09:36:32.222Z,4.44
2023-03-15T09:37:32.209Z,4.33
2023-03-15T09:38:32.248Z,4.34
2023-03-15T09:39:32.197Z,4.37
2023-03-15T09:40:32.236Z,4.42
2023-03-15T09:41:32.151Z,4.44
2023-03-15T09:42:32.190Z,4.47
2023-03-15T09:43:32.200Z,4.47
2023-03-15T09:44:32.172Z,4.55
2023-03-15T09:45:32.206Z,4.46
2023-03-15T09:46:32.274Z,4.40
2023-03-15T09:47:32.116Z,4.37
2023-03-15T09:48:32.142Z,4.33
2023-03-15T09:49:32.086Z,4.16
2023-03-15T09:50:32.146Z,4.18
2023-03-15T09:51:32.117Z,4.14
2023-03-15T09:52:32.113Z,4.22
2023-03-15T09:53:32.092Z,4.65
2023-03-15T09:54:32.029Z,5.73
2023-03-15T09:55:32.090Z,6.44
2023-03-15T09:56:32.023Z,6.95
2023-03-15T09:57:31.986Z,7.24
2023-03-15T09:58:31.984Z,6.54
2023-03-15T09:59:31.984Z,5.86
2023-03-15T10:00:31.951Z,5.37
2023-03-15T10:01:32.039Z,5.13
2023-03-15T10:02:31.940Z,4.92
2023-03-15T10:03:32.057Z,4.76
2023-03-15T10:04:31.933Z,4.65
2023-03-15T10:05:31.906Z,4.54
2023-03-15T10:06:31.962Z,4.46
2023-03-15T10:07:31.959Z,4.52
2023-03-15T10:08:31.923Z,4.61
2023-03-15T10:09:31.934Z,4.62
2023-03-15T10:10:31.844Z,4.61
2023-03-15T10:11:31.845Z,4.54
2023-03-15T10:12:31.889Z,4.52
2023-03-15T10:13:31.811Z,4.73
2023-03-15T10:14:31.806Z,4.96
2023-03-15T10:15:31.804Z,4.98
2023-03-15T10:16:31.813Z,5.12
2023-03-15T10:17:31.780Z,5.74
2023-03-15T10:18:31.766Z,6.16
2023-03-15T10:19:31.797Z,5.86
2023-03-15T10:20:31.736Z,5.64
2023-03-15T10:21:31.746Z,6.16
2023-03-15T10:22:31.713Z,6.83
2023-03-15T10:23:31.838Z,6.89
2023-03-15T10:24:31.718Z,7.17
2023-03-15T10:25:31.756Z,7.40
2023-03-15T10:26:31.678Z,6.84
2023-03-15T10:27:31.662Z,6.32
2023-03-15T10:28:33.866Z,5.57
2023-03-15T10:29:31.663Z,5.45
2023-03-15T10:30:31.627Z,5.49
2023-03-15T10:31:43.463Z,5.45
2023-03-15T10:32:31.711Z,5.30
2023-03-15T10:33:31.639Z,5.37
2023-03-15T10:34:31.587Z,5.77
2023-03-15T10:35:31.625Z,5.60
2023-03-15T10:36:31.637Z,6.06
2023-03-15T10:37:31.547Z,6.03
2023-03-15T10:38:31.532Z,5.92
2023-03-15T10:39:31.546Z,6.03
2023-03-15T10:40:31.511Z,5.89
2023-03-15T10:41:31.537Z,5.77
2023-03-15T10:42:31.550Z,5.67
2023-03-15T10:43:31.528Z,5.53
2023-03-15T10:44:31.546Z,5.55
2023-03-15T10:45:31.476Z,5.40
2023-03-15T10:46:31.509Z,5.23
2023-03-15T10:47:31.533Z,5.13
2023-03-15T10:48:31.570Z,5.95
2023-03-15T10:49:31.535Z,6.26
2023-03-15T10:50:31.433Z,6.79
2023-03-15T10:51:31.413Z,7.59
2023-03-15T10:52:31.438Z,7.79
2023-03-15T10:53:31.441Z,8.10
2023-03-15T10:54:31.475Z,8.00
2023-03-15T10:55:31.394Z,8.07
2023-03-15T10:56:31.498Z,7.96
2023-03-15T10:57:31.482Z,7.89
2023-03-15T10:58:31.417Z,8.21
2023-03-15T10:59:31.295Z,8.03
2023-03-15T11:00:31.318Z,7.92
2023-03-15T11:01:31.392Z,8.25
2023-03-15T11:02:31.306Z,8.68
2023-03-15T11:03:31.315Z,8.76
2023-03-15T11:04:34.202Z,8.75
2023-03-15T11:05:31.281Z,8.28
2023-03-15T11:06:31.237Z,7.79
2023-03-15T11:07:31.370Z,8.11
2023-03-15T11:08:31.258Z,8.35
2023-03-15T11:09:31.217Z,8.39
2023-03-15T11:10:31.458Z,8.55
2023-03-15T11:11:31.178Z,7.75
2023-03-15T11:12:31.173Z,7.31
2023-03-15T11:13:31.240Z,6.79
2023-03-15T11:14:31.142Z,6.36
2023-03-15T11:15:31.137Z,6.06
2023-03-15T11:16:31.273Z,5.83
2023-03-15T11:17:31.109Z,5.73
2023-03-15T11:18:31.233Z,5.71
2023-03-15T11:19:31.110Z,5.70
2023-03-15T11:20:31.093Z,6.35
2023-03-15T11:21:31.129Z,7.13
2023-03-15T11:22:31.153Z,8.15
2023-03-15T11:23:31.618Z,7.71
2023-03-15T11:24:31.106Z,7.15
2023-03-15T11:25:31.108Z,6.44
2023-03-15T11:26:33.230Z,6.10
2023-03-15T11:27:31.008Z,5.77
2023-03-15T11:28:31.019Z,5.70
2023-03-15T11:29:31.014Z,5.66
2023-03-15T11:30:30.984Z,5.59
2023-03-15T11:31:31.073Z,5.75
2023-03-15T11:32:30.986Z,5.92
2023-03-15T11:33:30.930Z,6.43
2023-03-15T11:34:30.920Z,6.89
2023-03-15T11:35:31.021Z,7.05
2023-03-15T11:36:30.922Z,7.24
2023-03-15T11:37:30.945Z,7.59
2023-03-15T11:38:30.934Z,8.18
2023-03-15T11:39:30.924Z,8.53
2023-03-15T11:40:30.865Z,8.73
2023-03-15T11:41:30.872Z,8.97
2023-03-15T11:42:30.885Z,9.13
2023-03-15T11:43:30.870Z,9.24
2023-03-15T11:44:30.878Z,9.48
2023-03-15T11:45:30.823Z,8.60
2023-03-15T11:46:30.815Z,7.71
2023-03-15T11:47:30.804Z,7.37
2023-03-15T11:48:30.791Z,7.37
2023-03-15T11:49:30.761Z,7.71
2023-03-15T11:50:30.875Z,8.18
2023-03-15T11:51:30.747Z,8.76
2023-03-15T11:52:30.745Z,9.23
2023-03-15T11:53:30.721Z,9.20
2023-03-15T11:54:30.714Z,8.91
2023-03-15T11:55:30.699Z,8.08
2023-03-15T11:56:30.732Z,8.72
2023-03-15T11:57:30.736Z,9.23
2023-03-15T11:58:30.690Z,9.34
2023-03-15T11:59:30.678Z,8.54
2023-03-15T12:00:30.682Z,8.58
2023-03-15T12:01:30.650Z,8.54
2023-03-15T12:02:30.703Z,9.02
2023-03-15T12:03:30.671Z,9.10
2023-03-15T12:04:30.823Z,9.06
2023-03-15T12:05:30.591Z,8.84
2023-03-15T12:06:30.600Z,8.69
2023-03-15T12:07:30.571Z,8.42
2023-03-15T12:08:30.556Z,8.00
2023-03-15T12:09:30.577Z,8.17
2023-03-15T12:10:30.570Z,8.76
2023-03-15T12:11:30.549Z,9.28
2023-03-15T12:12:30.542Z,9.67
2023-03-15T12:13:30.517Z,9.78
2023-03-15T12:14:30.573Z,10.17
2023-03-15T12:15:30.525Z,10.71
2023-03-15T12:16:30.528Z,11.01
2023-03-15T12:17:30.642Z,10.74
2023-03-15T12:18:30.495Z,10.53
2023-03-15T12:19:30.457Z,10.00
2023-03-15T12:20:30.488Z,10.24
2023-03-15T12:21:30.474Z,10.34
2023-03-15T12:22:30.417Z,9.78
2023-03-15T12:23:30.410Z,9.78
2023-03-15T12:26:08.643Z,9.96
2023-03-15T12:26:41.967Z,10.24
2023-03-15T12:27:41.926Z,10.56
2023-03-15T12:28:41.933Z,10.44
2023-03-15T12:29:43.428Z,10.89
2023-03-15T12:30:41.894Z,11.65
2023-03-15T12:31:41.891Z,10.84
2023-03-15T12:32:41.875Z,9.85
2023-03-15T12:33:41.888Z,9.38
2023-03-15T12:34:41.888Z,9.48
2023-03-15T12:35:41.855Z,9.28
2023-03-15T12:36:41.815Z,8.99
2023-03-15T12:41:17.467Z,11.65
2023-03-15T12:42:13.353Z,11.28
2023-03-15T12:43:13.329Z,11.47
2023-03-15T12:44:13.368Z,11.83
2023-03-15T12:45:13.306Z,10.92
2023-03-15T12:46:13.325Z,10.84
2023-03-15T12:47:13.438Z,10.80
2023-03-15T12:48:13.301Z,10.76
2023-03-15T12:49:13.345Z,11.02
2023-03-15T12:50:13.380Z,11.41
2023-03-15T12:51:13.247Z,11.57
2023-03-15T12:52:13.317Z,11.89
2023-03-15T12:53:13.349Z,11.62
2023-03-15T12:54:13.194Z,11.59
2023-03-15T12:55:13.241Z,11.32
2023-03-15T12:56:13.292Z,9.89
2023-03-15T12:57:13.168Z,9.58
2023-03-15T12:58:13.188Z,9.05
2023-03-15T12:59:13.160Z,8.30
2023-03-15T13:00:13.140Z,8.12
2023-03-15T13:01:14.037Z,9.24
2023-03-15T13:02:13.132Z,9.97
2023-03-15T13:03:13.180Z,10.39
2023-03-15T13:04:13.096Z,10.73
2023-03-15T13:05:13.102Z,10.33
2023-03-15T13:06:13.102Z,10.76
2023-03-15T13:07:13.086Z,11.34
2023-03-15T13:08:13.117Z,11.64
2023-03-15T13:09:13.094Z,11.21
2023-03-15T13:10:13.109Z,11.01
2023-03-15T13:11:13.060Z,11.17
2023-03-15T13:12:13.013Z,11.39
2023-03-15T13:13:13.016Z,11.34
2023-03-15T13:14:13.036Z,10.44
2023-03-15T13:15:13.009Z,10.98
2023-03-15T13:16:12.998Z,11.68
2023-03-15T13:17:12.953Z,12.75
2023-03-15T13:18:12.931Z,13.29
2023-03-15T13:19:12.958Z,11.77
2023-03-15T13:20:13.028Z,11.87
2023-03-15T13:21:12.916Z,11.65
2023-03-15T13:22:12.927Z,12.84
2023-03-15T13:23:12.902Z,12.81
2023-03-15T13:24:13.645Z,12.88
2023-03-15T13:25:12.917Z,13.00
2023-03-15T13:26:12.883Z,13.29
2023-03-15T13:27:12.892Z,12.48
2023-03-15T13:28:12.856Z,10.58
2023-03-15T13:29:12.873Z,10.40
2023-03-15T13:30:12.820Z,9.78
2023-03-15T13:31:13.496Z,8.84
2023-03-15T13:32:12.811Z,8.33
2023-03-15T13:33:12.809Z,7.84
2023-03-15T13:34:12.791Z,7.59
2023-03-15T13:35:12.769Z,7.77
2023-03-15T13:36:12.816Z,7.94
2023-03-15T13:37:12.781Z,7.75
2023-03-15T13:38:12.733Z,7.49
2023-03-15T13:39:12.751Z,7.50
2023-03-15T13:40:12.864Z,8.71
2023-03-15T13:41:12.727Z,8.63
2023-03-15T13:42:12.696Z,8.11
2023-03-15T13:43:12.764Z,7.78
2023-03-15T13:44:12.701Z,7.71
2023-03-15T13:45:12.731Z,7.63
2023-03-15T13:46:12.689Z,7.58
2023-03-15T13:47:12.696Z,7.52
2023-03-15T13:48:13.407Z,7.45
2023-03-15T13:49:12.641Z,7.38
2023-03-15T13:50:12.634Z,7.22
2023-03-15T13:51:12.610Z,7.26
2023-03-15T13:52:12.617Z,7.31
2023-03-15T13:53:14.066Z,7.29
2023-03-15T13:56:01.828Z,7.24
2023-03-15T13:56:23.604Z,6.83
2023-03-15T13:57:23.579Z,6.53
2023-03-15T13:58:23.583Z,6.47
2023-03-15T13:59:23.579Z,6.36
2023-03-15T14:00:23.648Z,6.33
2023-03-15T14:01:23.631Z,6.33
2023-03-15T14:02:23.543Z,6.41
2023-03-15T14:03:23.574Z,6.69
2023-03-15T14:04:23.565Z,7.17
2023-03-15T14:05:23.579Z,8.11
2023-03-15T14:06:23.554Z,9.04
2023-03-15T14:07:23.446Z,9.75
2023-03-15T14:08:23.467Z,10.26
2023-03-15T14:09:23.449Z,10.66
2023-03-15T14:10:23.461Z,11.20
2023-03-15T14:11:23.424Z,11.57
2023-03-15T14:12:23.484Z,12.16
2023-03-15T14:13:23.439Z,11.82
2023-03-15T14:14:23.378Z,11.13
2023-03-15T14:15:23.380Z,10.86
2023-03-15T14:16:23.553Z,11.16
2023-03-15T14:17:23.400Z,11.28
2023-03-15T14:18:23.407Z,10.84
2023-03-15T14:19:23.324Z,10.36
2023-03-15T14:20:23.367Z,10.59
2023-03-15T14:21:23.281Z,10.09
2023-03-15T14:22:23.346Z,9.85
2023-03-15T14:23:23.395Z,8.65
2023-03-15T14:24:23.256Z,8.75
2023-03-15T14:25:23.346Z,9.02
2023-03-15T14:26:23.265Z,9.28
2023-03-15T14:27:23.824Z,9.35
2023-03-15T14:28:23.735Z,8.51
2023-03-15T14:29:23.217Z,7.99
2023-03-15T14:30:23.229Z,8.17
2023-03-15T14:31:23.216Z,8.81
2023-03-15T14:32:23.234Z,9.01
2023-03-15T14:33:23.182Z,8.53
2023-03-15T14:34:23.157Z,8.29
2023-03-15T14:35:23.167Z,8.50
2023-03-15T14:36:23.144Z,8.26
2023-03-15T14:37:23.162Z,8.17
2023-03-15T14:38:23.128Z,7.87
2023-03-15T14:39:23.212Z,7.78
2023-03-15T14:40:23.085Z,7.89
2023-03-15T14:41:23.081Z,7.92
2023-03-15T14:42:23.081Z,7.93
2023-03-15T14:43:23.045Z,7.77
2023-03-15T14:44:23.089Z,8.22
2023-03-15T14:45:23.180Z,9.23
2023-03-15T14:46:23.067Z,9.81
2023-03-15T14:47:23.044Z,9.34
2023-03-15T14:48:23.081Z,9.06
2023-03-15T14:49:22.985Z,9.28
2023-03-15T14:50:23.181Z,9.30
2023-03-15T14:51:22.989Z,9.45
2023-03-15T14:52:23.043Z,9.46
2023-03-15T14:53:22.969Z,9.78
2023-03-15T14:54:22.994Z,9.78
2023-03-15T14:55:22.997Z,9.73
2023-03-15T14:56:22.939Z,9.85
2023-03-15T14:57:22.897Z,9.57
2023-03-15T14:58:22.941Z,9.21
2023-03-15T14:59:22.924Z,8.87
2023-03-15T15:00:22.855Z,8.81
2023-03-15T15:01:22.982Z,9.06
2023-03-15T15:02:22.916Z,9.34
2023-03-15T15:03:22.822Z,9.61
2023-03-15T15:04:22.822Z,8.83
2023-03-15T15:05:22.811Z,8.10
2023-03-15T15:06:22.844Z,8.10
2023-03-15T15:07:22.823Z,7.75
2023-03-15T15:08:22.870Z,7.42
2023-03-15T15:09:22.795Z,7.26
2023-03-15T15:10:22.825Z,8.14
2023-03-15T15:11:22.791Z,7.81
2023-03-15T15:12:22.760Z,7.44
2023-03-15T15:13:22.783Z,7.34
2023-03-15T15:14:22.700Z,7.78
2023-03-15T15:15:22.693Z,8.11
2023-03-15T15:16:22.729Z,7.74
2023-03-15T15:17:22.715Z,7.49
2023-03-15T15:18:22.692Z,7.29
2023-03-15T15:19:22.692Z,7.20
2023-03-15T15:20:22.653Z,7.05
2023-03-15T15:21:22.621Z,6.99
2023-03-15T15:22:22.612Z,6.86
2023-03-15T15:23:22.597Z,6.81
2023-03-15T15:24:22.619Z,6.68
2023-03-15T15:25:22.613Z,6.66
2023-03-15T15:26:22.578Z,6.66
2023-03-15T15:27:22.555Z,6.73
2023-03-15T15:28:33.980Z,6.66
2023-03-15T15:29:22.558Z,6.68
2023-03-15T15:30:22.564Z,6.73
2023-03-15T15:31:22.591Z,6.89
2023-03-15T15:32:22.569Z,7.41
2023-03-15T15:33:22.490Z,7.49
2023-03-15T15:34:22.484Z,7.47
2023-03-15T15:35:22.501Z,7.40
2023-03-15T15:36:22.461Z,7.24
2023-03-15T15:37:22.449Z,7.07
2023-03-15T15:38:22.483Z,6.94
2023-03-15T15:39:22.431Z,6.83
2023-03-15T15:40:22.422Z,6.77
2023-03-15T15:41:22.404Z,6.73
2023-03-15T15:42:22.384Z,6.73
2023-03-15T15:43:22.404Z,6.76
2023-03-15T15:44:22.399Z,6.76
2023-03-15T15:45:22.424Z,6.76
2023-03-15T15:46:22.469Z,6.71
2023-03-15T15:47:22.337Z,6.76
2023-03-15T15:48:22.357Z,6.87
2023-03-15T15:49:22.321Z,6.90
2023-03-15T15:50:22.308Z,6.90
2023-03-15T15:51:22.295Z,6.79
2023-03-15T15:52:22.294Z,6.72
2023-03-15T15:53:22.382Z,6.66
2023-03-15T15:54:22.296Z,6.72
2023-03-15T15:55:22.256Z,6.71
2023-03-15T15:56:22.277Z,6.71
2023-03-15T15:57:22.223Z,6.66
2023-03-15T15:58:22.218Z,6.69
2023-03-15T15:59:22.855Z,6.71
2023-03-15T16:00:22.225Z,6.72
2023-03-15T16:01:22.331Z,6.76
2023-03-15T16:02:22.482Z,6.72
2023-03-15T16:03:22.193Z,6.68
2023-03-15T16:04:22.170Z,6.69
2023-03-15T16:05:22.134Z,6.62
2023-03-15T16:06:22.140Z,6.58
2023-03-15T16:07:22.129Z,6.58
2023-03-15T16:08:22.113Z,6.56
2023-03-15T16:09:22.089Z,6.53
2023-03-15T16:10:22.090Z,6.46
2023-03-15T16:11:22.080Z,6.44
2023-03-15T16:12:22.052Z,6.43
2023-03-15T16:13:22.112Z,6.43
2023-03-15T16:14:22.062Z,6.43
2023-03-15T16:15:22.026Z,6.19
2023-03-15T16:16:22.086Z,5.70
2023-03-15T16:17:22.151Z,5.34
2023-03-15T16:18:22.026Z,5.07
2023-03-15T16:19:21.980Z,4.75
2023-03-15T16:20:22.010Z,4.34
2023-03-15T16:21:22.018Z,4.19
2023-03-15T16:22:21.979Z,4.24
2023-03-15T16:23:21.937Z,4.33
2023-03-15T16:24:21.926Z,4.19
2023-03-15T16:25:21.914Z,4.15
2023-03-15T16:26:21.924Z,4.10
2023-03-15T16:27:21.916Z,4.19
2023-03-15T16:28:21.885Z,4.33
2023-03-15T16:29:21.882Z,4.50
2023-03-15T16:30:21.873Z,4.62
2023-03-15T16:31:21.996Z,4.73
2023-03-15T16:32:33.004Z,4.76
2023-03-15T16:33:21.872Z,4.76
2023-03-15T16:34:21.837Z,4.69
2023-03-15T16:35:21.839Z,4.62
2023-03-15T16:36:21.833Z,4.59
2023-03-15T16:37:21.861Z,4.54
2023-03-15T16:38:21.776Z,4.46
2023-03-15T16:39:21.763Z,4.44
2023-03-15T16:40:22.041Z,4.46
2023-03-15T16:41:21.843Z,4.42
2023-03-15T16:42:22.084Z,4.43
2023-03-15T16:43:21.727Z,4.43
2023-03-15T16:44:22.367Z,4.40
2023-03-15T16:47:30.834Z,4.34
2023-03-15T16:49:56.264Z,4.21
2023-03-15T16:50:57.128Z,4.16
2023-03-15T16:51:57.166Z,4.12
2023-03-15T16:52:57.258Z,4.14
2023-03-15T16:54:08.512Z,4.07
2023-03-15T16:54:57.090Z,4.04
2023-03-15T16:55:57.079Z,4.04
2023-03-15T16:59:17.244Z,3.92
2023-03-15T17:00:18.075Z,3.94
2023-03-15T17:01:18.165Z,3.92
2023-03-15T17:02:18.105Z,3.94
2023-03-15T17:03:18.158Z,3.97
2023-03-15T17:04:18.457Z,3.94
2023-03-15T17:05:18.097Z,3.90
2023-03-15T17:06:18.738Z,3.89
2023-03-15T17:07:18.054Z,3.90
2023-03-15T17:08:18.115Z,3.90
2023-03-15T17:09:18.063Z,3.89
2023-03-15T17:10:18.386Z,4.00
2023-03-15T17:11:18.293Z,3.97
2023-03-15T17:12:18.033Z,4.00
2023-03-15T17:13:18.005Z,3.98
2023-03-15T17:14:17.954Z,3.96
2023-03-15T17:15:17.950Z,3.94
2023-03-15T17:16:18.109Z,3.88
2023-03-15T17:17:17.929Z,3.86
2023-03-15T17:18:17.986Z,3.85
2023-03-15T17:19:17.902Z,3.85
2023-03-15T17:20:18.052Z,3.79
2023-03-15T17:23:04.481Z,3.76
2023-03-15T17:23:28.872Z,3.70
2023-03-15T17:24:28.874Z,3.72
2023-03-15T17:25:28.834Z,3.75
2023-03-15T17:26:28.855Z,3.76
2023-03-15T17:27:28.817Z,3.72
2023-03-15T17:28:28.828Z,3.75
2023-03-15T17:29:28.820Z,3.71
2023-03-15T17:30:28.813Z,3.75
2023-03-15T17:31:28.849Z,3.68
2023-03-15T17:32:28.847Z,3.65
2023-03-15T17:33:28.765Z,3.68
2023-03-15T17:34:28.738Z,3.70
2023-03-15T17:35:28.740Z,3.68
2023-03-15T17:36:28.766Z,3.67
2023-03-15T17:37:28.709Z,3.62
2023-03-15T17:38:28.760Z,3.62
2023-03-15T17:39:28.683Z,3.62
2023-03-15T17:40:28.712Z,3.62
2023-03-15T17:41:29.567Z,3.62
2023-03-15T17:42:30.058Z,3.61
2023-03-15T17:43:28.752Z,3.64
2023-03-15T17:44:28.699Z,3.67
2023-03-15T17:45:28.715Z,3.70
2023-03-15T17:46:28.726Z,3.70
2023-03-15T17:47:28.665Z,3.68
2023-03-15T17:48:28.892Z,3.70
2023-03-15T17:49:28.648Z,3.71
2023-03-15T17:50:28.599Z,3.67
2023-03-15T17:51:28.641Z,3.67
2023-03-15T17:52:28.665Z,3.67
2023-03-15T17:53:28.595Z,3.70
2023-03-15T17:54:28.605Z,3.67
2023-03-15T17:55:28.599Z,3.64
2023-03-15T17:56:28.568Z,3.62
2023-03-15T17:57:28.551Z,3.60
2023-03-15T17:58:28.569Z,3.57
2023-03-15T17:59:28.565Z,3.60
2023-03-15T18:00:28.481Z,3.62
2023-03-15T18:01:28.584Z,3.64
2023-03-15T18:02:28.578Z,3.64
2023-03-15T18:03:28.509Z,3.64
2023-03-15T18:04:31.058Z,3.64
2023-03-15T18:06:59.589Z,3.65
2023-03-15T18:07:43.490Z,3.58
2023-03-15T18:08:39.556Z,3.53
2023-03-15T18:09:39.537Z,3.61
2023-03-15T18:10:39.554Z,3.60
2023-03-15T18:11:39.556Z,3.57
2023-03-15T18:12:39.481Z,3.58
2023-03-15T18:13:39.501Z,3.52
2023-03-15T18:14:39.490Z,3.54
2023-03-15T18:15:39.510Z,3.50
2023-03-15T18:16:39.531Z,3.54
2023-03-15T18:17:39.525Z,3.50
2023-03-15T18:18:39.471Z,3.53
2023-03-15T18:19:39.515Z,3.50
2023-03-15T18:20:39.417Z,3.49
2023-03-15T18:21:39.418Z,3.52
2023-03-15T18:22:40.033Z,3.47
2023-03-15T18:23:39.369Z,3.49
2023-03-15T18:24:39.488Z,3.53
2023-03-15T18:25:39.377Z,3.54
2023-03-15T18:26:39.383Z,3.49
2023-03-15T18:27:39.332Z,3.47
2023-03-15T18:28:39.308Z,3.46
2023-03-15T18:29:39.352Z,3.53
2023-03-15T18:30:39.289Z,3.52